createdAt,value
2023-02-06T00:00:18.478Z,71.40
2023-02-06T00:03:16.288Z,71.00
2023-02-06T00:06:14.035Z,71.00
2023-02-06T00:09:12.007Z,71.40
2023-02-06T00:12:09.786Z,71.30
2023-02-06T00:15:07.977Z,71.50
2023-02-06T00:18:05.796Z,72.10
2023-02-06T00:21:03.665Z,72.80
2023-02-06T00:24:03.443Z,73.50
2023-02-06T00:27:01.064Z,73.60
2023-02-06T00:29:58.814Z,74.20
2023-02-06T00:32:57.028Z,74.30
2023-02-06T00:35:54.893Z,74.20
2023-02-06T00:38:52.647Z,74.10
2023-02-06T00:41:50.649Z,74.70
2023-02-06T00:44:49.502Z,74.80
2023-02-06T00:47:47.220Z,75.20
2023-02-06T00:50:45.053Z,75.10
2023-02-06T00:53:42.841Z,75.70
2023-02-06T00:56:40.486Z,75.70
2023-02-06T00:59:38.337Z,75.70
2023-02-06T01:02:37.502Z,75.40
2023-02-06T01:05:35.407Z,75.60
2023-02-06T01:08:33.549Z,74.60
2023-02-06T01:11:31.289Z,74.30
2023-02-06T01:14:29.127Z,72.50
2023-02-06T01:17:27.181Z,72.50
2023-02-06T01:20:25.207Z,72.60
2023-02-06T01:23:24.339Z,71.70
2023-02-06T01:26:27.331Z,72.00
2023-02-06T01:29:25.073Z,72.40
2023-02-06T01:32:23.226Z,73.10
2023-02-06T01:35:21.369Z,73.60
2023-02-06T01:38:19.242Z,73.90
2023-02-06T01:41:18.358Z,73.90
2023-02-06T01:44:20.576Z,73.80
2023-02-06T01:47:19.137Z,74.00
2023-02-06T01:50:16.846Z,73.90
2023-02-06T01:53:16.750Z,72.30
2023-02-06T01:56:20.107Z,71.20
2023-02-06T01:59:17.442Z,71.20
2023-02-06T02:02:15.427Z,71.20
2023-02-06T02:05:13.977Z,70.30
2023-02-06T02:08:19.202Z,70.50
2023-02-06T02:11:21.264Z,69.50
2023-02-06T02:14:19.157Z,69.10
2023-02-06T02:17:34.069Z,68.70
2023-02-06T02:21:02.121Z,68.90
2023-02-06T02:24:12.559Z,68.50
2023-02-06T02:27:39.873Z,68.10
2023-02-06T02:31:02.804Z,68.00
2023-02-06T02:34:35.938Z,68.20
2023-02-06T02:37:59.922Z,68.90
2023-02-06T02:41:17.570Z,69.30
2023-02-06T02:44:26.812Z,69.00
2023-02-06T02:47:32.751Z,67.50
2023-02-06T02:50:31.841Z,67.10
2023-02-06T02:53:29.631Z,67.20
2023-02-06T02:56:28.084Z,66.40
2023-02-06T02:59:35.413Z,65.40
2023-02-06T03:02:37.539Z,63.60
2023-02-06T03:05:40.922Z,62.70
2023-02-06T03:08:53.747Z,62.60
2023-02-06T03:12:04.112Z,61.80
2023-02-06T03:15:19.996Z,61.20
2023-02-06T03:18:24.429Z,60.70
2023-02-06T03:21:24.379Z,61.20
2023-02-06T03:24:26.498Z,61.40
2023-02-06T03:27:27.580Z,61.30
2023-02-06T03:30:27.653Z,60.90
2023-02-06T03:33:32.238Z,61.60
2023-02-06T03:36:30.172Z,61.80
2023-02-06T03:39:28.519Z,60.70
2023-02-06T03:42:28.089Z,59.90
2023-02-06T03:45:31.215Z,60.80
2023-02-06T03:48:35.775Z,60.80
2023-02-06T03:51:39.891Z,60.90
2023-02-06T03:54:43.560Z,60.50
2023-02-06T03:57:43.792Z,59.40
2023-02-06T04:00:44.612Z,58.10
2023-02-06T04:03:43.342Z,56.50
2023-02-06T04:06:41.135Z,54.70
2023-02-06T04:09:39.739Z,54.10
2023-02-06T04:12:37.702Z,53.30
2023-02-06T04:15:35.878Z,51.60
2023-02-06T04:18:33.833Z,51.20
2023-02-06T04:21:31.851Z,49.90
2023-02-06T04:24:31.021Z,50.20
2023-02-06T04:27:29.004Z,49.40
2023-02-06T04:30:26.860Z,48.80
2023-02-06T04:33:25.036Z,47.80
2023-02-06T04:36:22.833Z,47.10
2023-02-06T04:39:20.563Z,46.60
2023-02-06T04:42:18.401Z,45.50
2023-02-06T04:45:16.096Z,44.40
2023-02-06T04:48:14.165Z,43.30
2023-02-06T04:51:11.957Z,42.80
2023-02-06T04:54:14.488Z,40.50
2023-02-06T04:57:12.525Z,40.70
2023-02-06T05:00:10.945Z,39.70
2023-02-06T05:03:11.948Z,43.00
2023-02-06T05:06:09.798Z,45.30
2023-02-06T05:09:07.701Z,44.60
2023-02-06T05:12:05.690Z,42.30
2023-02-06T05:15:03.922Z,40.20
2023-02-06T05:18:01.976Z,41.30
2023-02-06T05:21:00.089Z,42.60
2023-02-06T05:23:57.761Z,43.50
2023-02-06T05:26:58.391Z,43.90
2023-02-06T05:29:56.727Z,42.50
2023-02-06T05:32:54.479Z,42.00
2023-02-06T05:35:52.365Z,42.00
2023-02-06T05:38:51.282Z,41.20
2023-02-06T05:41:49.216Z,40.30
2023-02-06T05:44:46.938Z,41.80
2023-02-06T05:47:44.738Z,42.50
2023-02-06T05:50:43.381Z,42.00
2023-02-06T05:53:41.247Z,43.50
2023-02-06T05:56:39.169Z,43.70
2023-02-06T05:59:36.886Z,42.20
2023-02-06T06:02:34.682Z,42.30
2023-02-06T06:05:32.986Z,43.00
2023-02-06T06:08:30.836Z,43.00
2023-02-06T06:11:30.996Z,44.50
2023-02-06T06:14:28.915Z,46.00
2023-02-06T06:17:26.752Z,46.80
2023-02-06T06:20:25.439Z,47.00
2023-02-06T06:23:23.145Z,45.60
2023-02-06T06:26:21.054Z,47.90
2023-02-06T06:29:19.180Z,47.90
2023-02-06T06:32:16.956Z,47.70
2023-02-06T06:35:14.964Z,48.40
2023-02-06T06:38:12.691Z,46.90
2023-02-06T06:41:10.641Z,49.00
2023-02-06T06:44:08.308Z,49.30
2023-02-06T06:47:06.467Z,50.10
2023-02-06T06:50:04.593Z,51.50
2023-02-06T06:53:02.824Z,51.60
2023-02-06T06:56:06.158Z,52.50
2023-02-06T06:59:03.584Z,51.00
2023-02-06T07:02:05.385Z,51.10
2023-02-06T07:05:03.208Z,49.10
2023-02-06T07:08:01.020Z,48.10
2023-02-06T07:10:59.758Z,46.60
2023-02-06T07:13:57.644Z,42.70
2023-02-06T07:16:56.843Z,43.60
2023-02-06T07:19:54.584Z,45.10
2023-02-06T07:22:54.046Z,42.80
2023-02-06T07:25:52.031Z,43.40
2023-02-06T07:28:50.297Z,42.20
2023-02-06T07:31:48.201Z,43.10
2023-02-06T07:34:45.976Z,45.00
2023-02-06T07:37:43.807Z,44.50
2023-02-06T07:40:45.656Z,44.70
2023-02-06T07:43:43.735Z,44.80
2023-02-06T07:46:43.052Z,45.60
2023-02-06T07:49:40.655Z,44.10
2023-02-06T07:52:38.899Z,49.10
2023-02-06T07:55:41.524Z,53.20
2023-02-06T07:58:39.379Z,54.60
2023-02-06T08:01:38.006Z,52.90
2023-02-06T08:04:36.731Z,58.90
2023-02-06T08:07:34.719Z,59.60
2023-02-06T08:10:33.035Z,60.60
2023-02-06T08:13:30.745Z,61.00
2023-02-06T08:16:28.722Z,62.20
2023-02-06T08:19:26.585Z,64.00
2023-02-06T08:22:24.414Z,62.60
2023-02-06T08:25:22.674Z,62.40
2023-02-06T08:28:20.986Z,62.30
2023-02-06T08:31:25.279Z,63.80
2023-02-06T08:34:23.212Z,64.30
2023-02-06T08:37:21.298Z,63.30
2023-02-06T08:40:19.594Z,63.10
2023-02-06T08:43:17.445Z,62.10
2023-02-06T08:46:17.916Z,63.90
2023-02-06T08:49:18.935Z,63.20
2023-02-06T08:52:20.098Z,64.00
2023-02-06T08:55:18.135Z,65.60
2023-02-06T08:58:15.779Z,64.40
2023-02-06T09:01:17.702Z,62.50
2023-02-06T09:04:16.385Z,60.60
2023-02-06T09:07:16.957Z,61.90
2023-02-06T09:10:26.737Z,63.70
2023-02-06T09:13:26.780Z,62.60
2023-02-06T09:16:26.552Z,64.30
2023-02-06T09:19:24.374Z,64.80
2023-02-06T09:22:22.427Z,64.60
2023-02-06T09:25:20.640Z,64.90
2023-02-06T09:28:18.682Z,68.20
2023-02-06T09:31:16.622Z,66.90
2023-02-06T09:34:14.504Z,66.90
2023-02-06T09:37:12.528Z,68.00
2023-02-06T09:40:16.557Z,69.90
2023-02-06T09:43:15.341Z,70.10
2023-02-06T09:46:17.076Z,70.00
2023-02-06T09:49:25.023Z,69.10
2023-02-06T09:52:46.820Z,69.20
2023-02-06T09:56:07.656Z,69.80
2023-02-06T09:59:18.502Z,70.40
2023-02-06T10:02:38.346Z,70.20
2023-02-06T10:05:50.436Z,72.30
2023-02-06T10:09:02.596Z,72.60
2023-02-06T10:12:10.412Z,71.30
2023-02-06T10:15:21.323Z,72.20
2023-02-06T10:18:37.763Z,71.60
2023-02-06T10:21:42.494Z,72.90
2023-02-06T10:24:54.543Z,73.80
2023-02-06T10:27:58.982Z,74.10
2023-02-06T10:31:23.344Z,73.00
2023-02-06T10:34:43.768Z,73.00
2023-02-06T10:38:05.459Z,72.90
2023-02-06T10:41:19.869Z,73.90
2023-02-06T10:44:35.829Z,73.60
2023-02-06T10:47:40.458Z,73.00
2023-02-06T10:50:56.053Z,73.00
2023-02-06T10:53:59.236Z,77.30
2023-02-06T10:56:59.647Z,73.90
2023-02-06T11:00:02.380Z,74.40
2023-02-06T11:03:08.040Z,75.10
2023-02-06T11:06:06.592Z,76.00
2023-02-06T11:09:04.700Z,76.10
2023-02-06T11:12:03.384Z,76.10
2023-02-06T11:15:09.790Z,75.70
2023-02-06T11:18:12.210Z,75.80
2023-02-06T11:21:13.257Z,74.80
2023-02-06T11:24:14.080Z,75.00
2023-02-06T11:27:17.286Z,74.20
2023-02-06T11:30:36.173Z,74.20
2023-02-06T11:33:52.822Z,75.00
2023-02-06T11:36:57.045Z,75.30
2023-02-06T11:39:54.879Z,76.40
2023-02-06T11:43:11.119Z,77.30
2023-02-06T11:46:26.294Z,78.10
2023-02-06T11:49:31.317Z,78.50
2023-02-06T11:52:32.079Z,78.80
2023-02-06T11:55:34.905Z,79.20
2023-02-06T11:58:36.171Z,79.50
2023-02-06T12:01:43.859Z,79.70
2023-02-06T12:04:45.829Z,80.40
2023-02-06T12:07:54.184Z,81.50
2023-02-06T12:10:59.419Z,80.80
2023-02-06T12:14:05.392Z,81.80
2023-02-06T12:17:08.361Z,81.80
2023-02-06T12:20:14.754Z,82.00
2023-02-06T12:23:22.804Z,82.50
2023-02-06T12:26:24.762Z,82.60
2023-02-06T12:29:32.463Z,82.90
2023-02-06T12:32:44.011Z,82.90
2023-02-06T12:35:54.442Z,82.20
2023-02-06T12:39:07.925Z,82.20
2023-02-06T12:42:28.764Z,82.40
2023-02-06T12:45:45.113Z,82.30
2023-02-06T12:48:52.768Z,81.40
2023-02-06T12:52:11.637Z,81.00
2023-02-06T12:55:22.425Z,81.80
2023-02-06T12:58:29.475Z,82.00
2023-02-06T13:01:56.123Z,81.60
2023-02-06T13:04:54.909Z,81.60
2023-02-06T13:07:55.231Z,81.90
2023-02-06T13:11:23.923Z,82.00
2023-02-06T13:14:25.817Z,81.20
2023-02-06T13:17:26.536Z,81.30
2023-02-06T13:20:26.422Z,81.20
2023-02-06T13:23:26.173Z,81.60
2023-02-06T13:27:03.583Z,81.60
2023-02-06T13:30:34.365Z,81.40
2023-02-06T13:33:44.117Z,81.20
2023-02-06T13:36:52.648Z,80.50
2023-02-06T13:40:10.456Z,79.20
2023-02-06T13:43:22.015Z,78.50
2023-02-06T13:46:23.429Z,78.80
2023-02-06T13:50:13.678Z,78.80
2023-02-06T13:53:45.592Z,77.00
2023-02-06T13:57:13.938Z,76.50
2023-02-06T14:00:23.432Z,77.50
2023-02-06T14:03:31.352Z,78.10
2023-02-06T14:07:02.532Z,77.40
2023-02-06T14:10:38.756Z,77.00
2023-02-06T14:13:48.111Z,77.40
2023-02-06T14:16:53.139Z,75.60
2023-02-06T14:20:29.959Z,75.80
2023-02-06T14:23:45.667Z,75.90
2023-02-06T14:26:49.077Z,75.80
2023-02-06T14:29:54.569Z,72.60
2023-02-06T14:33:06.219Z,72.30
2023-02-06T14:36:22.895Z,73.30
2023-02-06T14:39:55.333Z,74.80
2023-02-06T14:42:57.363Z,76.40
2023-02-06T14:46:07.932Z,77.30
2023-02-06T14:49:06.609Z,77.60
2023-02-06T14:52:06.008Z,78.30
2023-02-06T14:55:34.014Z,78.90
2023-02-06T14:58:32.067Z,79.90
2023-02-06T15:01:32.583Z,78.50
2023-02-06T15:04:31.258Z,76.70
2023-02-06T15:07:34.967Z,74.40
2023-02-06T15:10:38.119Z,70.90
2023-02-06T15:13:36.691Z,70.50
2023-02-06T15:16:47.476Z,70.40
2023-02-06T15:19:45.216Z,70.80
2023-02-06T15:22:44.885Z,71.90
2023-02-06T15:26:06.538Z,70.70
2023-02-06T15:29:06.774Z,70.40
2023-02-06T15:32:08.306Z,70.20
2023-02-06T15:35:21.836Z,69.60
2023-02-06T15:38:21.361Z,70.60
2023-02-06T15:41:19.881Z,71.90
2023-02-06T15:44:25.623Z,73.20
2023-02-06T15:47:23.941Z,73.30
2023-02-06T15:50:30.920Z,72.60
2023-02-06T15:53:51.192Z,72.80
2023-02-06T15:56:52.115Z,72.90
2023-02-06T15:59:49.729Z,73.00
2023-02-06T16:02:48.075Z,71.70
2023-02-06T16:05:45.940Z,69.90
2023-02-06T16:08:50.829Z,70.00
2023-02-06T16:11:53.394Z,70.70
2023-02-06T16:15:00.027Z,70.20
2023-02-06T16:18:00.560Z,69.20
2023-02-06T16:21:16.755Z,69.60
2023-02-06T16:24:18.362Z,70.20
2023-02-06T16:27:21.588Z,70.90
2023-02-06T16:30:31.697Z,71.70
2023-02-06T16:33:41.414Z,72.00
2023-02-06T16:36:39.032Z,71.50
2023-02-06T16:39:37.006Z,71.90
2023-02-06T16:42:37.697Z,72.60
2023-02-06T16:45:35.470Z,73.30
2023-02-06T16:48:33.291Z,73.50
2023-02-06T16:51:32.501Z,72.50
2023-02-06T16:54:32.504Z,71.60
2023-02-06T16:57:33.464Z,71.30
2023-02-06T17:00:32.606Z,70.20
2023-02-06T17:03:33.423Z,70.30
2023-02-06T17:06:35.109Z,70.20
2023-02-06T17:09:32.905Z,70.30
2023-02-06T17:12:32.334Z,70.80
2023-02-06T17:15:30.355Z,71.20
2023-02-06T17:18:28.344Z,71.60
2023-02-06T17:21:28.768Z,71.80
2023-02-06T17:24:26.485Z,72.10
2023-02-06T17:27:24.322Z,72.60
2023-02-06T17:30:23.585Z,72.70
2023-02-06T17:33:21.630Z,73.00
2023-02-06T17:36:29.691Z,73.30
2023-02-06T17:39:27.459Z,73.10
2023-02-06T17:42:26.136Z,72.20
2023-02-06T17:45:24.062Z,72.00
2023-02-06T17:48:21.706Z,71.80
2023-02-06T17:51:19.592Z,69.50
2023-02-06T17:54:17.251Z,66.30
2023-02-06T17:57:15.118Z,64.40
2023-02-06T18:00:16.866Z,65.40
2023-02-06T18:03:17.641Z,66.00
2023-02-06T18:06:15.333Z,67.50
2023-02-06T18:09:13.768Z,69.00
2023-02-06T18:12:11.502Z,68.10
2023-02-06T18:15:10.090Z,68.20
2023-02-06T18:18:07.882Z,70.00
2023-02-06T18:21:05.794Z,71.10
2023-02-06T18:24:03.475Z,70.00
2023-02-06T18:27:03.738Z,81.20
2023-02-06T18:30:04.310Z,87.90
2023-02-06T18:33:02.639Z,90.00
2023-02-06T18:36:05.954Z,89.90
2023-02-06T18:39:04.223Z,90.30
2023-02-06T18:42:20.651Z,87.00
2023-02-06T18:45:19.770Z,86.50
2023-02-06T18:48:17.464Z,85.30
2023-02-06T18:51:15.225Z,80.00
2023-02-06T18:54:12.932Z,78.40
2023-02-06T18:57:11.178Z,77.10
2023-02-06T19:00:12.866Z,75.40
2023-02-06T19:03:10.800Z,77.80
2023-02-06T19:06:13.830Z,82.60
2023-02-06T19:09:14.195Z,86.80
2023-02-06T19:12:11.957Z,89.00
2023-02-06T19:15:10.767Z,90.20
2023-02-06T19:18:09.387Z,90.50
2023-02-06T19:21:12.823Z,90.50
2023-02-06T19:24:14.405Z,90.10
2023-02-06T19:27:12.995Z,90.40
2023-02-06T19:30:11.849Z,90.30
2023-02-06T19:33:09.627Z,90.70
2023-02-06T19:36:13.683Z,90.40
2023-02-06T19:39:13.737Z,90.10
2023-02-06T19:42:15.860Z,89.00
2023-02-06T19:45:14.184Z,89.00
2023-02-06T19:48:14.795Z,89.30
2023-02-06T19:51:18.382Z,89.70
2023-02-06T19:54:17.116Z,89.40
2023-02-06T19:57:15.567Z,89.20
2023-02-06T20:00:13.651Z,89.30
2023-02-06T20:03:11.720Z,89.00
2023-02-06T20:06:13.577Z,89.50
2023-02-06T20:09:14.045Z,89.10
2023-02-06T20:12:15.608Z,89.60
2023-02-06T20:15:13.654Z,89.60
2023-02-06T20:18:11.322Z,90.00
2023-02-06T20:21:20.932Z,88.70
2023-02-06T20:24:22.717Z,87.90
2023-02-06T20:27:20.376Z,86.40
2023-02-06T20:30:19.457Z,86.80
2023-02-06T20:33:17.328Z,86.60
2023-02-06T20:36:19.438Z,84.60
2023-02-06T20:39:17.828Z,82.80
2023-02-06T20:42:15.982Z,81.40
2023-02-06T20:45:13.812Z,81.90
2023-02-06T20:48:11.403Z,83.30
2023-02-06T20:51:09.128Z,83.80
2023-02-06T20:54:07.223Z,84.30
2023-02-06T20:57:05.482Z,84.60
2023-02-06T21:00:06.368Z,84.90
2023-02-06T21:03:04.651Z,85.70
2023-02-06T21:06:02.276Z,85.90
2023-02-06T21:09:02.878Z,86.70
2023-02-06T21:12:00.538Z,87.40
2023-02-06T21:14:58.311Z,87.40
2023-02-06T21:17:55.957Z,87.40
2023-02-06T21:20:55.756Z,86.90
2023-02-06T21:23:56.249Z,87.50
2023-02-06T21:26:54.588Z,86.00
2023-02-06T21:29:52.206Z,85.40
2023-02-06T21:32:49.913Z,85.30
2023-02-06T21:35:53.989Z,84.40
2023-02-06T21:38:51.978Z,84.00
2023-02-06T21:41:54.115Z,82.80
2023-02-06T21:44:51.885Z,82.10
2023-02-06T21:47:49.572Z,82.10
2023-02-06T21:50:47.204Z,82.80
2023-02-06T21:53:45.978Z,83.40
2023-02-06T21:56:44.394Z,82.10
2023-02-06T21:59:42.481Z,81.90
2023-02-06T22:02:40.467Z,83.10
2023-02-06T22:05:39.134Z,83.20
2023-02-06T22:08:37.876Z,84.20
2023-02-06T22:11:40.200Z,83.80
2023-02-06T22:14:38.110Z,85.30
2023-02-06T22:17:35.981Z,86.10
2023-02-06T22:20:33.868Z,86.30
2023-02-06T22:23:31.704Z,86.10
2023-02-06T22:26:34.308Z,84.40
2023-02-06T22:29:32.711Z,85.10
2023-02-06T22:32:30.795Z,85.40
2023-02-06T22:35:28.393Z,84.50
2023-02-06T22:38:26.338Z,84.30
2023-02-06T22:41:24.044Z,84.80
2023-02-06T22:44:22.251Z,85.50
2023-02-06T22:47:19.892Z,85.50
2023-02-06T22:50:17.777Z,85.70
2023-02-06T22:53:31.177Z,85.90
2023-02-06T22:56:32.235Z,85.90
2023-02-06T22:59:30.102Z,85.70
2023-02-06T23:02:27.784Z,85.90
2023-02-06T23:05:25.479Z,86.30
2023-02-06T23:08:23.205Z,86.60
2023-02-06T23:11:20.940Z,86.80
2023-02-06T23:14:19.922Z,86.10
2023-02-06T23:17:17.773Z,86.40
2023-02-06T23:20:15.699Z,85.00
2023-02-06T23:23:13.320Z,83.80
2023-02-06T23:26:12.663Z,84.20
2023-02-06T23:29:16.108Z,84.30
2023-02-06T23:32:13.540Z,84.00
2023-02-06T23:35:11.968Z,82.80
2023-02-06T23:38:10.216Z,81.60
2023-02-06T23:41:16.765Z,82.60
2023-02-06T23:44:14.897Z,83.20
2023-02-06T23:47:12.491Z,84.10
2023-02-06T23:50:10.709Z,84.10
2023-02-06T23:53:08.297Z,81.50
2023-02-06T23:56:14.600Z,78.20
2023-02-06T23:59:12.891Z,77.90
